KJAC/JAC METAR and TAF weather

Enter ICAO airport designator
Station Type Date Time Source
KJAC METAR 2021/09/20 05:56 UTC NOAA

KJAC 200556Z AUTO 22005KT 10SM -RA BKN009 BKN055 OVC120 03/02 A3014 RMK AO2 RAE29B46 CIG 007V012 SLP196 P0000 60005 T00330022 10056 20028 53008


Station Type Date Time Source
KJAC Decoded METAR 2021/09/20 05:56 UTC NOAA

Jackson, Jackson Hole Airport, WY, United States (KJAC) 43-36N 110-44W
Sep 20, 2021 - 01:56 AM EDT / 2021.09.20 0556 UTC
Wind: from the SW (220 degrees) at 6 MPH (5 KT):0
Visibility: 10 mile(s):0
Sky conditions: overcast
Weather: light rain
Precipitation last hour: A trace
Temperature: 37.9 F (3.3 C)
Dew Point: 36.0 F (2.2 C)
Relative Humidity: 92%
Pressure (altimeter): 30.14 in. Hg (1020 hPa)
Pressure tendency: 0.02 inches (0.8 hPa) higher than three hours ago
ob: KJAC 200556Z AUTO 22005KT 10SM -RA BKN009 BKN055 OVC120 03/02 A3014 RMK AO2 RAE29B46 CIG 007V012 SLP196 P0000 60005 T00330022 10056 20028 53008
cycle: 6

Station Type Date Time Source
KJAC TAF 2021/09/20 06:30 UTC NOAA

TAF KJAC 200527Z 2006/2106 21008KT P6SM -SHRA SCT030 BKN045
TEMPO 2006/2009 BKN025
FM201000 VRB06KT P6SM VCSH SCT020 BKN035
FM201500 VRB06KT P6SM SCT025 BKN040
FM202000 25009KT P6SM VCSH SCT030 BKN050
FM210200 36006KT P6SM SCT060

Example: see airport list